createdAt,value
2022-07-27T00:04:47.884Z,13.01
2022-07-27T00:08:09.324Z,13.12
2022-07-27T00:11:20.319Z,13.19
2022-07-27T00:14:21.953Z,13.23
2022-07-27T01:26:57.345Z,13.45
2022-07-27T01:33:25.556Z,13.31
2022-07-27T01:36:39.828Z,13.36
2022-07-27T01:40:08.184Z,13.37
2022-07-27T01:43:16.614Z,13.34
2022-07-27T01:49:52.100Z,13.37
2022-07-27T01:53:03.264Z,13.41
2022-07-27T01:56:05.125Z,13.42
2022-07-27T01:59:27.499Z,13.49
2022-07-27T02:03:35.104Z,13.41
2022-07-27T02:06:45.251Z,13.38
2022-07-27T02:10:08.626Z,13.33
2022-07-27T02:13:41.348Z,13.15
2022-07-27T02:16:53.198Z,13.06
2022-07-27T02:20:15.833Z,13.00
2022-07-27T02:23:27.447Z,13.07
2022-07-27T02:30:05.751Z,13.18
2022-07-27T02:33:35.717Z,13.24
2022-07-27T02:36:43.972Z,13.32
2022-07-27T02:40:09.834Z,13.32
2022-07-27T02:46:41.377Z,13.27
2022-07-27T02:49:52.529Z,13.26
2022-07-27T02:52:58.745Z,13.35
2022-07-27T02:56:36.016Z,13.36
2022-07-27T02:59:38.309Z,13.39
2022-07-27T03:02:46.433Z,13.39
2022-07-27T03:05:54.102Z,13.32
2022-07-27T03:09:13.205Z,13.32
2022-07-27T03:12:33.445Z,13.30
2022-07-27T03:15:52.367Z,13.33
2022-07-27T03:19:20.265Z,13.31
2022-07-27T03:22:27.688Z,13.37
2022-07-27T03:29:11.495Z,13.15
2022-07-27T03:32:35.568Z,13.17
2022-07-27T03:58:21.598Z,12.93
2022-07-27T04:01:30.403Z,12.89
2022-07-27T04:04:32.062Z,12.85
2022-07-27T04:07:45.109Z,12.87
2022-07-27T04:10:53.602Z,12.83
2022-07-27T04:17:55.202Z,12.91
2022-07-27T04:21:04.045Z,12.99
2022-07-27T04:31:30.115Z,13.29
2022-07-27T04:34:38.940Z,13.25
2022-07-27T04:37:58.694Z,13.31
2022-07-27T04:41:51.958Z,13.30
2022-07-27T04:45:24.295Z,13.30
2022-07-27T04:48:35.860Z,13.32
2022-07-27T04:51:46.634Z,13.39
2022-07-27T04:54:52.431Z,13.66
2022-07-27T04:58:04.519Z,13.74
2022-07-27T05:01:08.515Z,14.04
2022-07-27T05:04:27.641Z,14.31
2022-07-27T05:07:46.581Z,14.58
2022-07-27T05:11:01.329Z,14.41
2022-07-27T05:14:04.834Z,15.56
2022-07-27T05:17:16.419Z,16.62
2022-07-27T05:21:17.299Z,16.42
2022-07-27T05:24:41.486Z,15.78
2022-07-27T05:27:53.821Z,15.81
2022-07-27T05:31:00.527Z,15.75
2022-07-27T05:34:10.595Z,15.40
2022-07-27T05:37:15.413Z,15.33
2022-07-27T05:40:37.238Z,15.09
2022-07-27T05:43:47.991Z,15.05
2022-07-27T05:46:52.125Z,15.09
2022-07-27T05:50:06.123Z,14.91
2022-07-27T05:53:09.818Z,14.92
2022-07-27T05:56:20.538Z,15.00
2022-07-27T05:59:24.083Z,14.91
2022-07-27T06:02:32.223Z,14.71
2022-07-27T06:05:38.812Z,14.66
2022-07-27T06:08:52.232Z,14.64
2022-07-27T06:12:03.265Z,14.35
2022-07-27T06:15:48.715Z,14.28
2022-07-27T06:19:00.166Z,14.36
2022-07-27T06:22:03.800Z,14.25
2022-07-27T06:25:20.334Z,14.66
2022-07-27T06:28:27.042Z,14.66
2022-07-27T06:31:52.174Z,15.15
2022-07-27T06:35:03.670Z,15.66
2022-07-27T06:38:14.245Z,15.58
2022-07-27T06:41:19.516Z,15.79
2022-07-27T06:44:32.297Z,15.88
2022-07-27T06:47:48.939Z,15.83
2022-07-27T06:50:50.691Z,15.94
2022-07-27T06:54:04.634Z,15.94
2022-07-27T06:57:30.275Z,15.64
2022-07-27T07:00:40.356Z,16.12
2022-07-27T07:03:49.387Z,16.56
2022-07-27T07:07:04.034Z,17.03
2022-07-27T07:10:16.851Z,17.11
2022-07-27T07:34:43.582Z,22.10
2022-07-27T07:43:30.989Z,21.74
2022-07-27T07:46:55.485Z,23.96
2022-07-27T07:50:30.367Z,25.12
2022-07-27T07:53:44.300Z,25.31
2022-07-27T07:57:04.163Z,26.73
2022-07-27T08:00:47.676Z,26.03
2022-07-27T09:24:48.117Z,21.54
2022-07-27T14:00:12.936Z,20.05
2022-07-27T14:03:52.247Z,19.88
2022-07-27T14:07:03.375Z,19.39
2022-07-27T14:10:28.854Z,19.42
2022-07-27T14:13:39.763Z,19.02
2022-07-27T14:17:11.454Z,19.15
2022-07-27T14:21:11.355Z,19.44
2022-07-27T14:24:24.376Z,19.06
2022-07-27T14:27:33.734Z,19.04
2022-07-27T14:31:03.220Z,18.84
2022-07-27T14:34:19.708Z,19.25
2022-07-27T14:37:23.436Z,19.48
2022-07-27T14:41:13.164Z,19.46
2022-07-27T14:45:07.924Z,19.33
2022-07-27T14:48:22.792Z,19.27
2022-07-27T14:52:23.321Z,19.45
2022-07-27T14:55:44.199Z,19.11
2022-07-27T14:59:30.173Z,18.90
2022-07-27T15:02:37.392Z,18.99
2022-07-27T15:05:50.291Z,18.62
2022-07-27T15:09:14.441Z,18.50
2022-07-27T16:03:32.935Z,19.20
2022-07-27T16:32:37.539Z,18.10
2022-07-27T16:35:47.080Z,17.87
2022-07-27T16:39:19.049Z,18.20
2022-07-27T16:42:25.979Z,18.35
2022-07-27T16:50:21.693Z,18.44
2022-07-27T17:02:02.401Z,17.67
2022-07-27T17:09:01.612Z,17.61
2022-07-27T17:12:10.502Z,17.39
2022-07-27T17:15:23.662Z,17.51
2022-07-27T17:18:58.605Z,17.69
2022-07-27T17:22:01.647Z,17.59
2022-07-27T17:25:23.435Z,17.33
2022-07-27T17:28:44.515Z,17.23
2022-07-27T17:32:53.058Z,17.18
2022-07-27T17:36:15.952Z,17.08
2022-07-27T17:39:33.850Z,17.18
2022-07-27T17:43:15.429Z,17.27
2022-07-27T17:46:48.248Z,17.17
2022-07-27T17:53:41.274Z,16.85
2022-07-27T18:01:12.240Z,16.79
2022-07-27T18:04:29.340Z,16.55
2022-07-27T18:11:26.695Z,16.48
2022-07-27T18:18:24.249Z,16.15
2022-07-27T19:09:19.360Z,15.12
2022-07-27T19:12:28.216Z,14.97
2022-07-27T19:19:32.887Z,14.81
2022-07-27T19:23:37.942Z,14.55
2022-07-27T19:34:59.771Z,14.15
2022-07-27T19:38:17.926Z,14.04
2022-07-27T19:41:29.992Z,13.93
2022-07-27T19:44:43.638Z,13.85
2022-07-27T19:51:36.911Z,13.64
2022-07-27T19:54:41.010Z,13.53
2022-07-27T19:58:03.314Z,13.48
2022-07-27T20:04:39.710Z,13.30
2022-07-27T20:07:58.389Z,13.28
2022-07-27T20:11:50.050Z,13.34
2022-07-27T20:15:39.594Z,13.35
2022-07-27T20:19:21.528Z,13.42
